Latest Weather Observations for Mount Gellibrand

IDV60801

Issued at 7:35 am EST Friday 19 September 2014 (issued every 30 minutes, with the page automatically refreshed every 10 minutes)

About weather observations | Map of weather stations | Latest weather observations for VIC | Other Formats
Station Details ID: 090035 Name: MOUNT GELLIBRAND Lat: -38.23 Lon: 143.79 Height: 261.0 m
Data from the previous 72 hours. | See also: Recent months at Mount Gellibrand
Date/Time
EST
Temp
°C
App
Temp
°C
Dew
Point
Rel
Hum
%
Delta-T
°C
Wind Press
QNH
hPa
Press
MSL
hPa
Rain
since 9 am
mm
Dir
 
Spd
km/h
Gust
km/h
Spd
kts
Gust
kts
19/07:30am 6.0 2.2 5.6 97 0.2 W 15 17 8 9 1024.8 1025.0 0.0
19/07:00am 5.7 1.4 5.3 97 0.2 WSW 17 20 9 11 1024.6 1024.8 0.0
19/06:30am 4.8 0.3 4.4 97 0.2 W 17 20 9 11 1024.2 1024.4 0.0
19/06:00am 4.8 0.3 4.4 97 0.2 W 17 19 9 10 1023.7 1024.0 0.0
19/05:30am 4.9 0.8 4.3 96 0.3 WSW 15 19 8 10 1023.7 1024.0 0.0
19/05:00am 5.5 1.9 4.9 96 0.3 SW 13 15 7 8 1023.6 1023.9 0.0
19/04:30am 5.2 1.5 4.6 96 0.3 WSW 13 17 7 9 1023.5 1023.8 0.0
19/04:00am 5.2 1.1 4.5 95 0.3 W 15 17 8 9 1023.6 1023.9 0.0
19/03:30am 5.6 1.6 4.9 95 0.3 W 15 17 8 9 1023.5 1023.8 0.0
19/03:00am 5.9 1.5 4.9 93 0.4 W 17 20 9 11 1023.6 1023.9 0.0
19/02:30am 6.0 1.9 4.6 91 0.6 W 15 19 8 10 1023.9 1024.1 0.0
19/02:00am 6.0 1.9 4.5 90 0.7 W 15 19 8 10 1024.1 1024.3 0.0
19/01:30am 6.2 2.2 4.7 90 0.7 W 15 17 8 9 1024.3 1024.5 0.0
19/01:00am 6.3 3.0 4.5 88 0.8 WSW 11 13 6 7 1024.5 1024.7 0.0
19/12:30am 6.0 2.3 4.3 89 0.7 WSW 13 19 7 10 1024.8 1025.0 0.0
19/12:00am 6.4 2.7 4.4 87 0.9 W 13 17 7 9 1024.7 1024.9 0.0
 
Date/Time
EST
Temp
°C
App
Temp
°C
Dew
Point
Rel
Hum
%
Delta-T
°C
Wind Press
QNH
hPa
Press
MSL
hPa
Rain
since 9 am
mm
Dir
 
Spd
km/h
Gust
km/h
Spd
kts
Gust
kts
18/11:30pm 6.5 2.3 4.0 84 1.1 W 15 19 8 10 1024.8 1025.0 0.0
18/11:00pm 6.2 1.6 3.7 84 1.1 W 17 19 9 10 1025.0 1025.2 0.0
18/10:30pm 6.5 2.7 3.7 82 1.2 WSW 13 15 7 8 1025.0 1025.2 0.0
18/10:00pm 6.6 3.0 3.0 78 1.5 WSW 11 15 6 8 1025.0 1025.2 0.0
18/09:30pm 6.8 3.3 3.4 79 1.5 SW 11 15 6 8 1025.0 1025.2 0.0
18/09:00pm 6.7 2.0 3.0 77 1.6 SW 17 19 9 10 1025.0 1025.2 0.0
18/08:30pm 6.9 1.6 3.0 76 1.7 SSW 20 22 11 12 1024.8 1025.0 0.0
18/08:00pm 6.9 1.3 3.3 78 1.5 SSW 22 26 12 14 1024.6 1024.8 0.0
18/07:30pm 7.2 1.6 3.3 76 1.7 SW 22 26 12 14 1024.5 1024.7 0.0
18/07:00pm 7.7 2.0 3.0 72 2.0 SW 22 28 12 15 1024.2 1024.4 0.0
18/06:30pm 7.3 1.5 2.4 71 2.1 SSW 22 24 12 13 1024.0 1024.2 0.0
18/06:00pm 9.0 4.1 4.0 71 2.2 SSW 19 24 10 13 1023.7 1024.0 0.0
18/05:30pm 9.7 3.8 3.7 66 2.7 SSW 24 30 13 16 1023.5 1023.8 0.0
18/05:00pm 9.6 3.6 3.1 64 2.8 SW 24 28 13 15 1023.2 1023.5 0.0
18/04:30pm 10.7 4.2 4.6 66 2.8 SSW 28 35 15 19 1022.7 1022.9 0.0
18/04:00pm 11.2 5.2 5.3 67 2.7 SW 26 35 14 19 1022.5 1022.7 0.0
18/03:30pm 11.4 4.5 4.6 63 3.1 SSW 30 39 16 21 1022.5 1022.7 0.0
18/03:00pm 12.3 6.0 5.5 63 3.2 SW 28 33 15 18 1022.3 1022.5 0.0
18/02:30pm 11.4 5.9 3.9 60 3.4 SW 22 33 12 18 1022.5 1022.7 0.0
18/02:00pm 11.4 5.5 3.9 60 3.4 SW 24 33 13 18 1022.3 1022.5 0.0
18/01:30pm 11.6 5.0 4.1 60 3.4 SW 28 37 15 20 1022.3 1022.5 0.0
18/01:00pm 11.5 6.7 4.5 62 3.2 SW 19 24 10 13 1022.6 1022.8 0.0
18/12:30pm 10.9 4.6 3.9 62 3.2 SW 26 37 14 20 1022.6 1022.8 0.0
18/12:00pm 10.6 5.4 5.4 70 2.4 SSW 22 32 12 17 1022.7 1022.9 0.0
18/11:30am 10.5 4.8 6.6 77 1.9 S 26 33 14 18 1022.6 1022.8 0.0
18/11:00am 10.9 5.4 5.7 70 2.4 SW 24 32 13 17 1022.8 1023.0 0.0
18/10:30am 9.4 2.2 4.8 73 2.1 SSW 32 43 17 23 1022.8 1023.0 0.0
18/10:00am 10.0 4.4 5.4 73 2.1 WSW 24 33 13 18 1022.8 1023.0 0.0
18/09:30am 9.2 4.5 5.9 80 1.5 SW 20 26 11 14 1022.9 1023.1 0.0
18/09:00am 8.5 4.0 6.1 85 1.1 WSW 19 22 10 12 1022.6 1022.8 1.2
18/08:30am 7.7 3.2 6.2 90 0.7 WSW 19 26 10 14 1022.2 1022.4 1.2
18/08:00am 6.7 2.4 5.3 91 0.6 WSW 17 26 9 14 1022.0 1022.2 1.2
18/07:30am 5.1 0.6 4.2 94 0.4 W 17 20 9 11 1021.9 1022.1 1.2
18/07:00am 5.0 0.5 4.0 93 0.4 W 17 22 9 12 1021.4 1021.6 1.2
18/06:30am 4.8 -0.7 3.9 94 0.4 W 22 28 12 15 1021.1 1021.3 1.2
18/06:00am 4.8 0.2 3.9 94 0.4 W 17 22 9 12 1020.7 1020.9 1.2
18/05:30am 5.1 0.6 4.1 93 0.4 W 17 20 9 11 1020.5 1020.7 1.2
18/05:00am 5.0 0.5 4.0 93 0.4 W 17 24 9 13 1020.3 1020.5 1.2
18/04:30am 5.0 -0.9 4.0 93 0.4 WSW 24 28 13 15 1020.1 1020.3 1.2
18/04:00am 4.6 0.0 3.7 94 0.4 W 17 22 9 12 1019.7 1019.9 1.0
18/03:30am 4.8 -1.4 4.1 95 0.3 WSW 26 30 14 16 1019.4 1019.6 1.0
18/03:00am 4.6 -1.0 3.7 94 0.4 W 22 24 12 13 1019.4 1019.6 1.0
18/02:30am 5.0 -2.1 3.8 92 0.5 WSW 30 32 16 17 1019.3 1019.5 1.0
18/02:00am 4.7 -0.8 4.1 96 0.3 W 22 28 12 15 1019.3 1019.5 1.0
18/01:30am 4.2 -1.4 3.6 96 0.3 W 22 24 12 13 1019.5 1019.7 1.0
18/01:00am 4.5 -1.4 3.9 96 0.3 W 24 28 13 15 1019.5 1019.7 1.0
18/12:30am 4.3 -1.3 3.3 93 0.4 W 22 24 12 13 1019.4 1019.6 1.0
18/12:00am 5.1 0.0 3.9 92 0.5 W 20 26 11 14 1019.4 1019.6 1.0
 
Date/Time
EST
Temp
°C
App
Temp
°C
Dew
Point
Rel
Hum
%
Delta-T
°C
Wind Press
QNH
hPa
Press
MSL
hPa
Rain
since 9 am
mm
Dir
 
Spd
km/h
Gust
km/h
Spd
kts
Gust
kts
17/11:30pm 5.8 -0.3 4.6 92 0.5 WSW 26 37 14 20 1019.3 1019.5 1.0
17/11:00pm 5.8 -0.7 4.6 92 0.5 W 28 44 15 24 1019.2 1019.4 1.0
17/10:30pm 4.8 -1.5 3.8 93 0.4 W 26 30 14 16 1019.2 1019.4 1.0
17/10:00pm 5.0 -0.2 3.7 91 0.6 W 20 26 11 14 1019.2 1019.4 1.0
17/09:30pm 4.8 -0.8 3.3 90 0.6 W 22 24 12 13 1018.9 1019.1 0.8
17/09:00pm 5.1 -0.6 3.1 87 0.8 W 22 26 12 14 1018.8 1019.0 0.8
17/08:30pm 5.3 -0.3 3.5 88 0.8 W 22 28 12 15 1018.4 1018.6 0.8
17/08:00pm 5.5 -1.2 3.5 87 0.8 WSW 28 41 15 22 1018.3 1018.5 0.8
17/07:51pm 6.1 -0.6 3.9 86 0.9 WSW 28 52 15 28 1018.3 1018.5 0.4
17/07:30pm 5.8 -0.5 3.8 87 0.9 WSW 26 30 14 16 1017.9 1018.1 0.4
17/07:00pm 5.9 -1.0 4.4 90 0.7 WSW 30 35 16 19 1017.7 1017.9 0.4
17/06:30pm 5.9 -2.0 4.2 89 0.7 WSW 35 50 19 27 1017.3 1017.5 0.4
17/06:18pm 6.8 -0.8 4.1 83 1.2 WSW 33 61 18 33 1017.2 1017.4 0.2
17/06:00pm 7.3 -0.2 3.7 78 1.6 WSW 32 39 17 21 1017.0 1017.2 0.2
17/05:30pm 7.2 -2.5 3.1 75 1.8 WSW 43 52 23 28 1016.5 1016.6 0.2
17/05:00pm 7.4 -2.7 3.5 76 1.7 SW 46 74 25 40 1016.1 1016.2 0.2
17/04:54pm 7.3 -4.6 4.3 81 1.3 SW 56 74 30 40 1015.7 1015.9 0.2
17/04:50pm 8.4 -4.2 3.5 71 2.1 WSW 59 74 32 40 1015.3 1015.5 0.2
17/04:47pm 8.5 0.1 3.6 71 2.1 WSW 37 63 20 34 1015.5 1015.7 0.2
17/04:30pm 8.0 -0.5 5.1 82 1.3 WSW 39 46 21 25 1015.7 1015.9 0.2
17/04:16pm 7.4 -3.3 4.7 83 1.2 WSW 50 70 27 38 1015.4 1015.6 0.2
17/04:05pm 9.7 -2.9 3.4 65 2.8 WSW 59 70 32 38 1014.7 1014.9 0.0
17/04:01pm 9.8 1.1 4.0 67 2.6 WSW 39 59 21 32 1014.8 1015.0 0.0
17/04:00pm 9.8 1.6 4.8 71 2.3 WSW 37 54 20 29 1015.0 1015.2 0.0
17/03:30pm 7.4 -2.6 4.2 80 1.4 WSW 46 67 25 36 1015.1 1015.3 0.0
17/03:27pm 7.1 -3.7 4.1 81 1.3 WSW 50 70 27 38 1015.0 1015.2 0.0
17/03:00pm 10.4 -1.7 3.4 62 3.1 WSW 56 67 30 36 1014.1 1014.3 0.0
17/02:30pm 10.4 -1.5 4.1 65 2.8 WSW 56 70 30 38 1014.1 1014.3 0.0
17/02:23pm 10.6 0.2 4.1 64 2.9 WSW 48 70 26 38 1013.7 1013.9 0.0
17/02:00pm 9.0 -1.5 5.4 78 1.6 WSW 50 63 27 34 1014.0 1014.2 0.0
17/01:30pm 9.6 -0.7 6.3 80 1.6 WSW 50 65 27 35 1013.8 1014.0 0.0
17/01:07pm 8.3 -5.1 5.4 82 1.3 WSW 65 70 35 38 1013.4 1013.5 0.0
17/01:00pm 9.6 1.5 6.9 83 1.3 W 39 59 21 32 1013.6 1013.8 0.0
17/12:56pm 8.6 -0.5 6.1 84 1.2 WSW 43 61 23 33 1013.7 1013.9 0.0
17/12:30pm 10.2 1.0 5.6 73 2.1 W 43 59 23 32 1013.6 1013.8 0.0
17/12:03pm 9.8 -0.6 4.2 68 2.5 WSW 48 74 26 40 1013.2 1013.3 0.0
17/12:00pm 10.6 0.8 3.4 61 3.2 WSW 44 63 24 34 1013.4 1013.5 0.0
17/11:30am 10.8 -1.3 3.1 59 3.4 WSW 56 69 30 37 1013.1 1013.2 0.0
17/11:00am 10.4 -0.2 5.2 70 2.4 WSW 50 63 27 34 1013.4 1013.5 0.0
17/10:39am 9.0 -2.2 5.7 80 1.5 WSW 54 74 29 40 1013.3 1013.4 0.0
17/10:30am 8.6 -4.0 5.7 82 1.3 WSW 61 74 33 40 1012.9 1013.0 0.0
17/10:29am 9.1 -3.5 5.7 79 1.6 WSW 61 74 33 40 1012.9 1013.0 0.0
17/10:26am 10.4 2.2 6.7 78 1.8 WSW 39 63 21 34 1013.1 1013.2 0.0
17/10:00am 9.6 0.7 7.5 87 1.0 W 44 57 24 31 1013.2 1013.3 0.0
17/09:30am 9.1 1.2 7.7 91 0.7 W 39 50 21 27 1013.2 1013.3 0.0
17/09:00am 8.7 1.5 7.8 94 0.4 W 35 46 19 25 1013.0 1013.1 1.4
17/08:30am 7.9 0.3 7.5 97 0.2 W 37 46 20 25 1012.9 1013.0 1.4
17/08:00am 7.1 0.3 6.8 98 0.1 WNW 32 37 17 20 1012.8 1012.9 1.4
17/07:30am 6.7 0.2 6.4 98 0.1 WNW 30 37 16 20 1012.6 1012.7 1.4
17/07:00am 6.6 0.4 6.3 98 0.1 WNW 28 35 15 19 1012.5 1012.6 1.0
17/06:30am 6.2 -0.4 5.9 98 0.1 WNW 30 35 16 19 1012.4 1012.5 1.0
17/06:00am 6.1 -0.2 5.8 98 0.1 W 28 33 15 18 1012.3 1012.4 1.0
17/05:30am 6.5 -0.1 6.1 97 0.2 W 30 39 16 21 1012.1 1012.2 1.0
17/05:00am 7.7 0.8 7.4 98 0.1 W 33 41 18 22 1012.0 1012.1 1.0
17/04:30am 7.9 0.7 7.6 98 0.1 WSW 35 41 19 22 1011.7 1011.9 0.8
17/04:00am 8.1 1.3 7.8 98 0.1 W 33 41 18 22 1011.4 1011.6 0.2
17/03:30am 8.0 0.4 7.7 98 0.1 W 37 46 20 25 1011.2 1011.4 0.2
17/03:00am 7.8 1.5 7.4 97 0.2 W 30 37 16 20 1011.5 1011.7 0.0
17/02:30am 7.5 1.5 7.1 97 0.2 WNW 28 33 15 18 1011.7 1011.9 0.0
17/02:00am 7.6 2.4 7.2 97 0.2 WNW 24 32 13 17 1012.2 1012.3 0.0
17/01:30am 7.5 3.0 7.1 97 0.2 WNW 20 26 11 14 1012.4 1012.5 0.0
17/01:00am 7.3 2.8 6.9 97 0.2 WNW 20 26 11 14 1012.6 1012.7 0.0
17/12:30am 7.0 2.0 6.6 97 0.2 WNW 22 24 12 13 1012.6 1012.7 0.0
17/12:00am 6.7 2.1 6.3 97 0.2 WNW 20 24 11 13 1012.7 1012.8 0.0
 
Date/Time
EST
Temp
°C
App
Temp
°C
Dew
Point
Rel
Hum
%
Delta-T
°C
Wind Press
QNH
hPa
Press
MSL
hPa
Rain
since 9 am
mm
Dir
 
Spd
km/h
Gust
km/h
Spd
kts
Gust
kts
16/11:30pm 7.2 2.8 6.6 96 0.3 W 19 22 10 12 1012.8 1012.9 0.0
16/11:00pm 7.4 3.4 6.8 96 0.3 W 17 20 9 11 1013.1 1013.2 0.0
16/10:30pm 7.8 4.2 6.9 94 0.4 W 15 17 8 9 1013.2 1013.3 0.0
16/10:00pm 8.3 4.4 7.1 92 0.6 W 17 20 9 11 1013.4 1013.5 0.0
16/09:30pm 9.0 5.2 7.5 90 0.7 W 17 22 9 12 1013.4 1013.5 0.0
16/09:00pm 8.9 5.4 7.2 89 0.8 W 15 17 8 9 1013.5 1013.7 0.0
16/08:30pm 9.1 4.8 7.1 87 1.0 WSW 19 22 10 12 1013.4 1013.5 0.0
16/08:00pm 8.8 4.8 6.8 87 0.9 WSW 17 19 9 10 1013.2 1013.3 0.0
16/07:30pm 8.6 4.1 6.2 85 1.1 WSW 19 20 10 11 1013.1 1013.2 0.0
16/07:00pm 8.3 3.3 6.3 87 0.9 WSW 22 26 12 14 1012.8 1012.9 0.0
16/06:30pm 8.5 2.7 6.1 85 1.1 WSW 26 30 14 16 1012.4 1012.5 0.0
16/06:00pm 9.2 2.7 6.3 82 1.4 WSW 30 35 16 19 1012.3 1012.4 0.0
16/05:30pm 10.0 3.0 6.2 77 1.8 WSW 32 41 17 22 1012.1 1012.2 0.0
16/05:00pm 11.0 3.1 6.2 72 2.3 WSW 37 46 20 25 1011.5 1011.7 0.0
16/04:30pm 11.7 3.9 6.6 71 2.5 WSW 37 43 20 23 1011.4 1011.6 0.0
16/04:00pm 11.4 4.6 7.1 75 2.1 WSW 32 39 17 21 1011.3 1011.5 0.0
16/03:30pm 11.5 3.9 7.4 76 2.0 WSW 37 46 20 25 1011.2 1011.4 0.0
16/03:00pm 12.0 3.3 7.9 76 2.0 WSW 43 54 23 29 1010.9 1011.1 0.0
16/02:30pm 11.9 4.6 8.6 80 1.7 WSW 37 50 20 27 1010.6 1010.8 0.0
16/02:00pm 12.3 5.1 9.1 81 1.6 WSW 37 46 20 25 1010.5 1010.7 0.0
16/01:30pm 12.6 5.0 9.1 79 1.8 WSW 39 46 21 25 1010.3 1010.5 0.0
16/01:00pm 11.9 5.6 9.1 83 1.4 SW 32 39 17 21 1010.5 1010.7 0.0
16/12:30pm 11.3 3.6 8.7 84 1.3 SW 39 48 21 26 1010.5 1010.7 0.0
16/12:00pm 12.2 4.3 9.4 83 1.4 SW 41 50 22 27 1010.5 1010.7 0.0
16/11:30am 11.7 5.2 10.3 91 0.7 SW 35 43 19 23 1010.5 1010.7 0.0
16/11:00am 11.9 5.4 10.3 90 0.8 SW 35 48 19 26 1010.6 1010.8 0.0
16/10:30am 11.9 5.1 10.6 92 0.7 SW 37 44 20 24 1010.5 1010.7 0.0
16/10:00am 11.8 5.4 10.7 93 0.6 SW 35 44 19 24 1010.6 1010.8 0.0
16/09:30am 11.9 6.0 10.6 92 0.7 SW 32 37 17 20 1010.5 1010.7 0.0
16/09:00am 11.9 7.7 11.1 95 0.4 WSW 24 30 13 16 1010.5 1010.7 0.2
16/08:30am 10.7 6.6 10.2 97 0.3 WSW 22 28 12 15 1010.3 1010.5 0.2
16/08:00am 10.3 6.5 9.8 97 0.3 WSW 20 26 11 14 1010.2 1010.3 0.2

Other Formats:

Comma delimited format used in spreadsheet applications
http://www.bom.gov.au/fwo/IDV60801/IDV60801.95845.axf

JavaScript Object Notation format (JSON) in row-major order
http://www.bom.gov.au/fwo/IDV60801/IDV60801.95845.json